sensor_id;sensor_type;location;lat;lon;timestamp;P1;durP1;ratioP1;P2;durP2;ratioP2
73823;SDS011;62154;54.914;73.444;2022-09-12T00:01:25;44.25;;;13.85;;
73823;SDS011;62154;54.914;73.444;2022-09-12T00:03:56;15.63;;;5.82;;
73823;SDS011;62154;54.914;73.444;2022-09-12T00:06:27;5.28;;;2.08;;
73823;SDS011;62154;54.914;73.444;2022-09-12T00:08:56;7.53;;;3.60;;
73823;SDS011;62154;54.914;73.444;2022-09-12T00:11:26;3.85;;;1.60;;
73823;SDS011;62154;54.914;73.444;2022-09-12T00:13:57;4.30;;;1.55;;
73823;SDS011;62154;54.914;73.444;2022-09-12T00:16:26;7.22;;;1.85;;
73823;SDS011;62154;54.914;73.444;2022-09-12T00:18:54;7.35;;;2.00;;
73823;SDS011;62154;54.914;73.444;2022-09-12T00:21:24;17.40;;;4.05;;
73823;SDS011;62154;54.914;73.444;2022-09-12T00:23:51;20.65;;;4.38;;
73823;SDS011;62154;54.914;73.444;2022-09-12T00:26:18;14.70;;;3.80;;
73823;SDS011;62154;54.914;73.444;2022-09-12T00:28:47;8.88;;;2.47;;
73823;SDS011;62154;54.914;73.444;2022-09-12T00:31:23;8.93;;;3.30;;
73823;SDS011;62154;54.914;73.444;2022-09-12T00:33:53;10.95;;;2.63;;
73823;SDS011;62154;54.914;73.444;2022-09-12T00:36:23;7.03;;;2.40;;
73823;SDS011;62154;54.914;73.444;2022-09-12T00:38:51;6.68;;;2.30;;
73823;SDS011;62154;54.914;73.444;2022-09-12T00:41:21;11.60;;;2.10;;
73823;SDS011;62154;54.914;73.444;2022-09-12T00:43:57;7.28;;;1.83;;
73823;SDS011;62154;54.914;73.444;2022-09-12T00:46:37;107.47;;;46.47;;
73823;SDS011;62154;54.914;73.444;2022-09-12T00:54:32;9.10;;;3.20;;
73823;SDS011;62154;54.914;73.444;2022-09-12T00:57:06;11.50;;;3.00;;
73823;SDS011;62154;54.914;73.444;2022-09-12T00:59:39;11.88;;;3.80;;
73823;SDS011;62154;54.914;73.444;2022-09-12T01:02:10;11.88;;;4.50;;
73823;SDS011;62154;54.914;73.444;2022-09-12T01:04:37;10.10;;;4.25;;
73823;SDS011;62154;54.914;73.444;2022-09-12T01:07:07;13.68;;;3.95;;
73823;SDS011;62154;54.914;73.444;2022-09-12T01:09:34;6.93;;;3.65;;
73823;SDS011;62154;54.914;73.444;2022-09-12T01:12:03;8.02;;;3.08;;
73823;SDS011;62154;54.914;73.444;2022-09-12T01:14:31;12.88;;;3.30;;
73823;SDS011;62154;54.914;73.444;2022-09-12T01:16:58;5.03;;;3.00;;
73823;SDS011;62154;54.914;73.444;2022-09-12T01:30:45;6.80;;;2.05;;
73823;SDS011;62154;54.914;73.444;2022-09-12T01:33:29;4.30;;;1.80;;
73823;SDS011;62154;54.914;73.444;2022-09-12T01:38:58;4.40;;;1.70;;
73823;SDS011;62154;54.914;73.444;2022-09-12T01:47:13;4.45;;;1.95;;
73823;SDS011;62154;54.914;73.444;2022-09-12T01:50:06;11.20;;;3.30;;
73823;SDS011;62154;54.914;73.444;2022-09-12T01:58:49;10.55;;;3.20;;
73823;SDS011;62154;54.914;73.444;2022-09-12T02:01:22;7.22;;;2.58;;
73823;SDS011;62154;54.914;73.444;2022-09-12T02:06:47;8.35;;;2.50;;
73823;SDS011;62154;54.914;73.444;2022-09-12T02:11:55;7.45;;;1.85;;
73823;SDS011;62154;54.914;73.444;2022-09-12T02:14:32;6.10;;;2.30;;
73823;SDS011;62154;54.914;73.444;2022-09-12T02:17:05;3.28;;;1.65;;
73823;SDS011;62154;54.914;73.444;2022-09-12T02:20:00;9.63;;;1.63;;
73823;SDS011;62154;54.914;73.444;2022-09-12T02:22:32;5.50;;;1.85;;
73823;SDS011;62154;54.914;73.444;2022-09-12T02:25:03;8.70;;;2.05;;
73823;SDS011;62154;54.914;73.444;2022-09-12T02:27:37;8.93;;;2.53;;
73823;SDS011;62154;54.914;73.444;2022-09-12T02:30:24;8.05;;;1.90;;
73823;SDS011;62154;54.914;73.444;2022-09-12T02:33:05;11.77;;;3.67;;
73823;SDS011;62154;54.914;73.444;2022-09-12T02:35:48;14.40;;;2.80;;
73823;SDS011;62154;54.914;73.444;2022-09-12T02:38:35;16.70;;;2.92;;
73823;SDS011;62154;54.914;73.444;2022-09-12T02:41:09;9.57;;;3.30;;
73823;SDS011;62154;54.914;73.444;2022-09-12T02:43:49;14.80;;;2.90;;
73823;SDS011;62154;54.914;73.444;2022-09-12T02:46:31;17.15;;;3.50;;
73823;SDS011;62154;54.914;73.444;2022-09-12T02:49:03;5.78;;;2.10;;
73823;SDS011;62154;54.914;73.444;2022-09-12T02:51:30;10.18;;;2.20;;
73823;SDS011;62154;54.914;73.444;2022-09-12T02:53:58;13.90;;;2.63;;
73823;SDS011;62154;54.914;73.444;2022-09-12T02:56:27;14.13;;;2.67;;
73823;SDS011;62154;54.914;73.444;2022-09-12T02:59:07;10.13;;;2.45;;
73823;SDS011;62154;54.914;73.444;2022-09-12T03:01:50;15.68;;;2.80;;
73823;SDS011;62154;54.914;73.444;2022-09-12T03:09:44;13.85;;;2.67;;
73823;SDS011;62154;54.914;73.444;2022-09-12T03:15:16;7.07;;;1.80;;
73823;SDS011;62154;54.914;73.444;2022-09-12T03:20:43;6.40;;;2.20;;
73823;SDS011;62154;54.914;73.444;2022-09-12T03:26:12;6.72;;;2.38;;
73823;SDS011;62154;54.914;73.444;2022-09-12T03:28:45;4.30;;;1.90;;
73823;SDS011;62154;54.914;73.444;2022-09-12T03:31:24;9.45;;;2.40;;
73823;SDS011;62154;54.914;73.444;2022-09-12T03:33:54;12.18;;;4.13;;
73823;SDS011;62154;54.914;73.444;2022-09-12T03:36:25;7.75;;;2.28;;
73823;SDS011;62154;54.914;73.444;2022-09-12T03:38:54;10.02;;;2.70;;
73823;SDS011;62154;54.914;73.444;2022-09-12T03:41:21;11.40;;;2.65;;
73823;SDS011;62154;54.914;73.444;2022-09-12T03:43:48;13.45;;;2.80;;
73823;SDS011;62154;54.914;73.444;2022-09-12T03:46:15;12.52;;;2.75;;
73823;SDS011;62154;54.914;73.444;2022-09-12T03:48:53;7.38;;;2.42;;
73823;SDS011;62154;54.914;73.444;2022-09-12T03:51:20;5.43;;;2.10;;
73823;SDS011;62154;54.914;73.444;2022-09-12T03:53:47;6.88;;;1.60;;
73823;SDS011;62154;54.914;73.444;2022-09-12T03:56:14;4.60;;;1.45;;
73823;SDS011;62154;54.914;73.444;2022-09-12T03:58:41;3.72;;;1.40;;
73823;SDS011;62154;54.914;73.444;2022-09-12T04:01:15;4.13;;;1.27;;
73823;SDS011;62154;54.914;73.444;2022-09-12T04:03:45;5.22;;;1.40;;
73823;SDS011;62154;54.914;73.444;2022-09-12T04:08:48;12.82;;;2.42;;
73823;SDS011;62154;54.914;73.444;2022-09-12T04:11:17;8.95;;;1.67;;
73823;SDS011;62154;54.914;73.444;2022-09-12T04:13:45;6.00;;;1.42;;
73823;SDS011;62154;54.914;73.444;2022-09-12T04:16:13;4.05;;;1.35;;
73823;SDS011;62154;54.914;73.444;2022-09-12T04:18:41;2.53;;;0.93;;
73823;SDS011;62154;54.914;73.444;2022-09-12T04:21:19;8.13;;;1.10;;
73823;SDS011;62154;54.914;73.444;2022-09-12T04:23:52;6.68;;;1.15;;
73823;SDS011;62154;54.914;73.444;2022-09-12T04:26:19;5.13;;;0.90;;
73823;SDS011;62154;54.914;73.444;2022-09-12T04:28:52;1.20;;;0.75;;
73823;SDS011;62154;54.914;73.444;2022-09-12T04:31:23;1.75;;;0.85;;
73823;SDS011;62154;54.914;73.444;2022-09-12T04:33:55;5.47;;;1.00;;
73823;SDS011;62154;54.914;73.444;2022-09-12T04:36:23;3.35;;;0.93;;
73823;SDS011;62154;54.914;73.444;2022-09-12T04:38:57;3.47;;;0.65;;
73823;SDS011;62154;54.914;73.444;2022-09-12T04:41:29;3.70;;;1.55;;
73823;SDS011;62154;54.914;73.444;2022-09-12T04:44:12;7.25;;;0.82;;
73823;SDS011;62154;54.914;73.444;2022-09-12T04:46:41;3.10;;;0.70;;
73823;SDS011;62154;54.914;73.444;2022-09-12T04:49:10;7.72;;;1.10;;
73823;SDS011;62154;54.914;73.444;2022-09-12T04:51:44;4.85;;;0.73;;
73823;SDS011;62154;54.914;73.444;2022-09-12T04:54:15;9.18;;;0.63;;
73823;SDS011;62154;54.914;73.444;2022-09-12T04:56:46;3.50;;;0.85;;
73823;SDS011;62154;54.914;73.444;2022-09-12T04:59:23;6.78;;;0.60;;
73823;SDS011;62154;54.914;73.444;2022-09-12T05:01:51;2.55;;;0.70;;
73823;SDS011;62154;54.914;73.444;2022-09-12T05:04:27;4.00;;;0.70;;
73823;SDS011;62154;54.914;73.444;2022-09-12T05:06:54;4.18;;;0.70;;
73823;SDS011;62154;54.914;73.444;2022-09-12T05:09:21;7.78;;;1.02;;
73823;SDS011;62154;54.914;73.444;2022-09-12T05:11:48;3.95;;;0.73;;
73823;SDS011;62154;54.914;73.444;2022-09-12T05:14:25;7.03;;;0.93;;
73823;SDS011;62154;54.914;73.444;2022-09-12T05:16:52;12.20;;;2.55;;
73823;SDS011;62154;54.914;73.444;2022-09-12T05:19:21;8.35;;;1.75;;
73823;SDS011;62154;54.914;73.444;2022-09-12T05:21:48;13.57;;;4.40;;
73823;SDS011;62154;54.914;73.444;2022-09-12T05:24:15;16.10;;;3.70;;
73823;SDS011;62154;54.914;73.444;2022-09-12T05:26:54;2.28;;;0.98;;
73823;SDS011;62154;54.914;73.444;2022-09-12T05:29:21;2.92;;;0.60;;
73823;SDS011;62154;54.914;73.444;2022-09-12T05:31:50;0.60;;;0.40;;
73823;SDS011;62154;54.914;73.444;2022-09-12T05:34:18;2.47;;;0.77;;
73823;SDS011;62154;54.914;73.444;2022-09-12T05:36:46;4.40;;;0.80;;
73823;SDS011;62154;54.914;73.444;2022-09-12T05:39:13;4.22;;;0.82;;
73823;SDS011;62154;54.914;73.444;2022-09-12T05:41:40;1.40;;;0.50;;
73823;SDS011;62154;54.914;73.444;2022-09-12T05:44:14;4.75;;;0.93;;
73823;SDS011;62154;54.914;73.444;2022-09-12T05:46:42;1.92;;;0.50;;
73823;SDS011;62154;54.914;73.444;2022-09-12T05:49:12;5.43;;;0.60;;
73823;SDS011;62154;54.914;73.444;2022-09-12T05:51:40;1.25;;;0.60;;
73823;SDS011;62154;54.914;73.444;2022-09-12T05:54:10;6.60;;;1.00;;
73823;SDS011;62154;54.914;73.444;2022-09-12T05:56:39;1.80;;;0.68;;
73823;SDS011;62154;54.914;73.444;2022-09-12T05:59:18;2.28;;;0.40;;
73823;SDS011;62154;54.914;73.444;2022-09-12T06:01:46;3.20;;;0.90;;
73823;SDS011;62154;54.914;73.444;2022-09-12T06:04:13;2.10;;;0.63;;
73823;SDS011;62154;54.914;73.444;2022-09-12T06:06:41;2.25;;;0.60;;
73823;SDS011;62154;54.914;73.444;2022-09-12T06:09:17;5.00;;;0.57;;
73823;SDS011;62154;54.914;73.444;2022-09-12T06:11:45;2.92;;;0.50;;
73823;SDS011;62154;54.914;73.444;2022-09-12T06:14:13;1.33;;;0.93;;
73823;SDS011;62154;54.914;73.444;2022-09-12T06:16:41;0.75;;;0.40;;
73823;SDS011;62154;54.914;73.444;2022-09-12T06:19:14;2.88;;;0.73;;
73823;SDS011;62154;54.914;73.444;2022-09-12T06:21:43;3.17;;;0.70;;
73823;SDS011;62154;54.914;73.444;2022-09-12T06:24:12;3.33;;;1.17;;
73823;SDS011;62154;54.914;73.444;2022-09-12T06:26:39;4.38;;;1.00;;
73823;SDS011;62154;54.914;73.444;2022-09-12T06:29:09;5.78;;;1.30;;
73823;SDS011;62154;54.914;73.444;2022-09-12T06:31:44;0.65;;;0.47;;
73823;SDS011;62154;54.914;73.444;2022-09-12T06:34:12;1.50;;;0.70;;
73823;SDS011;62154;54.914;73.444;2022-09-12T06:36:44;3.03;;;0.60;;
73823;SDS011;62154;54.914;73.444;2022-09-12T06:39:14;2.95;;;0.70;;
73823;SDS011;62154;54.914;73.444;2022-09-12T06:41:43;8.07;;;1.13;;
73823;SDS011;62154;54.914;73.444;2022-09-12T06:44:11;6.53;;;1.08;;
73823;SDS011;62154;54.914;73.444;2022-09-12T06:46:44;4.57;;;2.30;;
73823;SDS011;62154;54.914;73.444;2022-09-12T06:49:11;0.80;;;0.43;;
73823;SDS011;62154;54.914;73.444;2022-09-12T06:51:39;1.17;;;0.47;;
73823;SDS011;62154;54.914;73.444;2022-09-12T06:54:13;2.42;;;0.40;;
73823;SDS011;62154;54.914;73.444;2022-09-12T06:56:42;4.47;;;1.00;;
73823;SDS011;62154;54.914;73.444;2022-09-12T06:59:10;1.88;;;0.60;;
73823;SDS011;62154;54.914;73.444;2022-09-12T07:01:37;6.97;;;1.92;;
73823;SDS011;62154;54.914;73.444;2022-09-12T07:04:06;6.63;;;3.05;;
73823;SDS011;62154;54.914;73.444;2022-09-12T07:06:40;5.75;;;1.45;;
73823;SDS011;62154;54.914;73.444;2022-09-12T07:09:11;4.80;;;2.17;;
73823;SDS011;62154;54.914;73.444;2022-09-12T07:11:41;6.75;;;0.90;;
73823;SDS011;62154;54.914;73.444;2022-09-12T07:14:14;1.95;;;0.50;;
73823;SDS011;62154;54.914;73.444;2022-09-12T07:16:43;4.85;;;0.88;;
73823;SDS011;62154;54.914;73.444;2022-09-12T07:19:11;1.40;;;0.55;;
73823;SDS011;62154;54.914;73.444;2022-09-12T07:21:38;10.68;;;1.55;;
73823;SDS011;62154;54.914;73.444;2022-09-12T07:24:05;3.55;;;1.50;;
73823;SDS011;62154;54.914;73.444;2022-09-12T07:26:34;2.50;;;0.90;;
73823;SDS011;62154;54.914;73.444;2022-09-12T07:29:01;3.85;;;1.20;;
73823;SDS011;62154;54.914;73.444;2022-09-12T07:31:30;2.80;;;1.20;;
73823;SDS011;62154;54.914;73.444;2022-09-12T07:33:57;9.20;;;0.82;;
73823;SDS011;62154;54.914;73.444;2022-09-12T07:36:28;0.63;;;0.47;;
73823;SDS011;62154;54.914;73.444;2022-09-12T07:38:55;2.75;;;0.88;;
73823;SDS011;62154;54.914;73.444;2022-09-12T07:41:24;6.13;;;1.00;;
73823;SDS011;62154;54.914;73.444;2022-09-12T07:43:53;3.78;;;1.00;;
73823;SDS011;62154;54.914;73.444;2022-09-12T07:46:22;6.20;;;1.25;;
73823;SDS011;62154;54.914;73.444;2022-09-12T07:48:50;2.70;;;0.55;;
73823;SDS011;62154;54.914;73.444;2022-09-12T07:51:18;1.20;;;0.63;;
73823;SDS011;62154;54.914;73.444;2022-09-12T07:53:49;4.20;;;0.70;;
73823;SDS011;62154;54.914;73.444;2022-09-12T07:56:17;1.30;;;0.60;;
73823;SDS011;62154;54.914;73.444;2022-09-12T07:58:45;3.42;;;1.30;;
73823;SDS011;62154;54.914;73.444;2022-09-12T08:01:14;1.80;;;0.75;;
73823;SDS011;62154;54.914;73.444;2022-09-12T08:03:43;2.08;;;0.70;;
73823;SDS011;62154;54.914;73.444;2022-09-12T08:08:41;7.03;;;0.98;;
73823;SDS011;62154;54.914;73.444;2022-09-12T08:11:19;2.28;;;1.00;;
73823;SDS011;62154;54.914;73.444;2022-09-12T08:13:47;3.10;;;1.20;;
73823;SDS011;62154;54.914;73.444;2022-09-12T08:16:16;6.50;;;1.25;;
73823;SDS011;62154;54.914;73.444;2022-09-12T08:18:53;2.38;;;1.02;;
73823;SDS011;62154;54.914;73.444;2022-09-12T08:21:24;4.20;;;0.38;;
73823;SDS011;62154;54.914;73.444;2022-09-12T08:23:54;1.52;;;0.90;;
73823;SDS011;62154;54.914;73.444;2022-09-12T08:26:29;2.47;;;0.73;;
73823;SDS011;62154;54.914;73.444;2022-09-12T08:28:58;1.02;;;0.80;;
73823;SDS011;62154;54.914;73.444;2022-09-12T08:31:28;5.50;;;0.80;;
73823;SDS011;62154;54.914;73.444;2022-09-12T08:34:02;2.58;;;0.90;;
73823;SDS011;62154;54.914;73.444;2022-09-12T08:36:30;4.60;;;1.90;;
73823;SDS011;62154;54.914;73.444;2022-09-12T08:39:02;4.95;;;1.00;;
73823;SDS011;62154;54.914;73.444;2022-09-12T08:41:36;7.38;;;1.20;;
73823;SDS011;62154;54.914;73.444;2022-09-12T08:46:39;4.15;;;1.45;;
73823;SDS011;62154;54.914;73.444;2022-09-12T08:49:28;6.55;;;0.85;;
73823;SDS011;62154;54.914;73.444;2022-09-12T08:52:04;3.30;;;0.70;;
73823;SDS011;62154;54.914;73.444;2022-09-12T08:54:38;4.53;;;0.88;;
73823;SDS011;62154;54.914;73.444;2022-09-12T08:57:07;1.23;;;0.60;;
73823;SDS011;62154;54.914;73.444;2022-09-12T08:59:42;14.70;;;1.60;;
73823;SDS011;62154;54.914;73.444;2022-09-12T09:02:23;4.50;;;0.77;;
73823;SDS011;62154;54.914;73.444;2022-09-12T09:10:23;7.93;;;1.27;;
73823;SDS011;62154;54.914;73.444;2022-09-12T09:16:13;6.35;;;1.40;;
73823;SDS011;62154;54.914;73.444;2022-09-12T09:19:03;3.25;;;0.95;;
73823;SDS011;62154;54.914;73.444;2022-09-12T09:21:42;10.70;;;1.67;;
73823;SDS011;62154;54.914;73.444;2022-09-12T09:24:17;4.63;;;1.67;;
73823;SDS011;62154;54.914;73.444;2022-09-12T09:26:53;7.60;;;1.60;;
73823;SDS011;62154;54.914;73.444;2022-09-12T09:29:29;15.80;;;3.70;;
73823;SDS011;62154;54.914;73.444;2022-09-12T09:32:02;9.68;;;2.92;;
73823;SDS011;62154;54.914;73.444;2022-09-12T09:34:40;9.65;;;2.08;;
73823;SDS011;62154;54.914;73.444;2022-09-12T09:45:15;7.03;;;2.60;;
73823;SDS011;62154;54.914;73.444;2022-09-12T09:48:20;27.55;;;3.20;;
73823;SDS011;62154;54.914;73.444;2022-09-12T09:50:47;8.07;;;1.45;;
73823;SDS011;62154;54.914;73.444;2022-09-12T09:53:37;10.02;;;2.20;;
73823;SDS011;62154;54.914;73.444;2022-09-12T09:58:53;9.73;;;1.83;;
73823;SDS011;62154;54.914;73.444;2022-09-12T10:01:21;4.68;;;1.63;;
73823;SDS011;62154;54.914;73.444;2022-09-12T10:03:59;9.35;;;3.00;;
73823;SDS011;62154;54.914;73.444;2022-09-12T10:06:30;6.38;;;1.85;;
73823;SDS011;62154;54.914;73.444;2022-09-12T10:09:04;13.88;;;1.80;;
73823;SDS011;62154;54.914;73.444;2022-09-12T10:11:46;12.77;;;2.03;;
73823;SDS011;62154;54.914;73.444;2022-09-12T10:25:47;14.93;;;4.13;;
73823;SDS011;62154;54.914;73.444;2022-09-12T10:28:33;10.10;;;4.07;;
73823;SDS011;62154;54.914;73.444;2022-09-12T10:31:05;6.57;;;2.10;;
73823;SDS011;62154;54.914;73.444;2022-09-12T10:33:44;7.80;;;1.73;;
73823;SDS011;62154;54.914;73.444;2022-09-12T10:36:18;8.50;;;2.00;;
73823;SDS011;62154;54.914;73.444;2022-09-12T10:38:56;16.30;;;5.45;;
73823;SDS011;62154;54.914;73.444;2022-09-12T10:41:26;18.15;;;5.35;;
73823;SDS011;62154;54.914;73.444;2022-09-12T10:44:06;15.55;;;3.03;;
73823;SDS011;62154;54.914;73.444;2022-09-12T10:46:44;12.70;;;3.13;;
73823;SDS011;62154;54.914;73.444;2022-09-12T10:49:25;13.23;;;2.50;;
73823;SDS011;62154;54.914;73.444;2022-09-12T10:52:17;9.90;;;1.60;;
73823;SDS011;62154;54.914;73.444;2022-09-12T10:54:49;11.20;;;1.40;;
73823;SDS011;62154;54.914;73.444;2022-09-12T11:00:13;4.60;;;1.40;;
73823;SDS011;62154;54.914;73.444;2022-09-12T11:06:01;9.70;;;3.13;;
73823;SDS011;62154;54.914;73.444;2022-09-12T11:14:35;7.32;;;1.02;;
73823;SDS011;62154;54.914;73.444;2022-09-12T11:17:26;1.65;;;0.85;;
73823;SDS011;62154;54.914;73.444;2022-09-12T11:23:46;3.30;;;0.82;;
73823;SDS011;62154;54.914;73.444;2022-09-12T11:42:48;6.68;;;1.33;;
73823;SDS011;62154;54.914;73.444;2022-09-12T11:45:27;15.98;;;1.83;;
73823;SDS011;62154;54.914;73.444;2022-09-12T11:48:10;10.23;;;1.30;;
73823;SDS011;62154;54.914;73.444;2022-09-12T11:50:44;8.15;;;1.48;;
73823;SDS011;62154;54.914;73.444;2022-09-12T11:56:03;11.40;;;3.78;;
73823;SDS011;62154;54.914;73.444;2022-09-12T11:58:50;11.90;;;4.30;;
73823;SDS011;62154;54.914;73.444;2022-09-12T12:01:37;15.60;;;6.38;;
73823;SDS011;62154;54.914;73.444;2022-09-12T12:04:18;6.25;;;2.33;;
73823;SDS011;62154;54.914;73.444;2022-09-12T12:06:55;5.03;;;1.48;;
73823;SDS011;62154;54.914;73.444;2022-09-12T12:09:35;6.20;;;1.50;;
73823;SDS011;62154;54.914;73.444;2022-09-12T12:12:22;7.88;;;1.83;;
73823;SDS011;62154;54.914;73.444;2022-09-12T12:14:54;12.35;;;1.63;;
73823;SDS011;62154;54.914;73.444;2022-09-12T12:17:23;11.70;;;1.52;;
73823;SDS011;62154;54.914;73.444;2022-09-12T12:20:03;9.80;;;2.25;;
73823;SDS011;62154;54.914;73.444;2022-09-12T12:22:37;11.32;;;2.58;;
73823;SDS011;62154;54.914;73.444;2022-09-12T12:35:40;12.10;;;4.57;;
73823;SDS011;62154;54.914;73.444;2022-09-12T12:43:50;20.50;;;4.68;;
73823;SDS011;62154;54.914;73.444;2022-09-12T12:46:21;30.13;;;8.65;;
73823;SDS011;62154;54.914;73.444;2022-09-12T12:54:28;97.82;;;51.58;;
73823;SDS011;62154;54.914;73.444;2022-09-12T12:59:53;62.38;;;34.45;;
73823;SDS011;62154;54.914;73.444;2022-09-12T13:02:27;84.90;;;44.75;;
73823;SDS011;62154;54.914;73.444;2022-09-12T13:05:20;72.03;;;37.92;;
73823;SDS011;62154;54.914;73.444;2022-09-12T13:07:54;50.40;;;26.75;;
73823;SDS011;62154;54.914;73.444;2022-09-12T13:11:26;272.63;;;122.43;;
73823;SDS011;62154;54.914;73.444;2022-09-12T13:14:04;52.83;;;24.83;;
73823;SDS011;62154;54.914;73.444;2022-09-12T13:16:52;92.70;;;43.00;;
73823;SDS011;62154;54.914;73.444;2022-09-12T13:19:35;54.92;;;23.88;;
73823;SDS011;62154;54.914;73.444;2022-09-12T13:24:45;160.70;;;66.57;;
73823;SDS011;62154;54.914;73.444;2022-09-12T13:27:21;78.78;;;37.47;;
73823;SDS011;62154;54.914;73.444;2022-09-12T13:30:24;58.00;;;24.88;;
73823;SDS011;62154;54.914;73.444;2022-09-12T13:32:45;25.70;;;12.07;;
73823;SDS011;62154;54.914;73.444;2022-09-12T13:35:17;40.55;;;12.82;;
73823;SDS011;62154;54.914;73.444;2022-09-12T13:43:45;34.72;;;10.93;;
73823;SDS011;62154;54.914;73.444;2022-09-12T13:46:15;35.75;;;8.65;;
73823;SDS011;62154;54.914;73.444;2022-09-12T13:48:58;32.88;;;7.60;;
73823;SDS011;62154;54.914;73.444;2022-09-12T13:51:50;33.70;;;7.53;;
73823;SDS011;62154;54.914;73.444;2022-09-12T13:54:39;34.92;;;12.25;;
73823;SDS011;62154;54.914;73.444;2022-09-12T14:00:09;30.25;;;9.13;;
73823;SDS011;62154;54.914;73.444;2022-09-12T14:02:49;41.38;;;12.43;;
73823;SDS011;62154;54.914;73.444;2022-09-12T14:05:40;48.72;;;14.35;;
73823;SDS011;62154;54.914;73.444;2022-09-12T14:08:11;28.38;;;11.55;;
73823;SDS011;62154;54.914;73.444;2022-09-12T14:10:50;32.83;;;9.77;;
73823;SDS011;62154;54.914;73.444;2022-09-12T14:13:24;72.60;;;35.83;;
73823;SDS011;62154;54.914;73.444;2022-09-12T14:15:57;38.88;;;18.35;;
73823;SDS011;62154;54.914;73.444;2022-09-12T14:18:29;28.38;;;12.15;;
73823;SDS011;62154;54.914;73.444;2022-09-12T14:21:08;28.65;;;10.13;;
73823;SDS011;62154;54.914;73.444;2022-09-12T14:23:56;34.15;;;8.60;;
73823;SDS011;62154;54.914;73.444;2022-09-12T14:26:26;82.78;;;40.85;;
73823;SDS011;62154;54.914;73.444;2022-09-12T14:28:57;638.85;;;287.20;;
73823;SDS011;62154;54.914;73.444;2022-09-12T14:31:35;220.50;;;76.00;;
73823;SDS011;62154;54.914;73.444;2022-09-12T14:34:10;35.28;;;12.23;;
73823;SDS011;62154;54.914;73.444;2022-09-12T14:39:38;424.63;;;159.57;;
73823;SDS011;62154;54.914;73.444;2022-09-12T14:42:12;271.05;;;94.60;;
73823;SDS011;62154;54.914;73.444;2022-09-12T14:44:43;445.10;;;167.10;;
73823;SDS011;62154;54.914;73.444;2022-09-12T14:47:37;413.08;;;152.63;;
73823;SDS011;62154;54.914;73.444;2022-09-12T14:50:26;344.23;;;115.20;;
73823;SDS011;62154;54.914;73.444;2022-09-12T14:53:05;398.75;;;137.98;;
73823;SDS011;62154;54.914;73.444;2022-09-12T14:55:56;96.70;;;32.85;;
73823;SDS011;62154;54.914;73.444;2022-09-12T14:58:35;129.50;;;62.58;;
73823;SDS011;62154;54.914;73.444;2022-09-12T15:03:34;73.00;;;23.80;;
73823;SDS011;62154;54.914;73.444;2022-09-12T15:06:17;50.70;;;10.23;;
73823;SDS011;62154;54.914;73.444;2022-09-12T15:08:49;88.00;;;37.90;;
73823;SDS011;62154;54.914;73.444;2022-09-12T15:11:19;70.93;;;25.45;;
73823;SDS011;62154;54.914;73.444;2022-09-12T15:13:46;51.60;;;13.57;;
73823;SDS011;62154;54.914;73.444;2022-09-12T15:16:13;46.03;;;17.92;;
73823;SDS011;62154;54.914;73.444;2022-09-12T15:18:41;39.35;;;11.57;;
73823;SDS011;62154;54.914;73.444;2022-09-12T15:21:10;44.42;;;12.07;;
73823;SDS011;62154;54.914;73.444;2022-09-12T15:23:48;43.88;;;12.23;;
73823;SDS011;62154;54.914;73.444;2022-09-12T15:26:22;32.78;;;9.38;;
73823;SDS011;62154;54.914;73.444;2022-09-12T15:28:52;26.05;;;10.95;;
73823;SDS011;62154;54.914;73.444;2022-09-12T15:31:22;38.45;;;11.13;;
73823;SDS011;62154;54.914;73.444;2022-09-12T15:33:51;26.88;;;7.95;;
73823;SDS011;62154;54.914;73.444;2022-09-12T15:36:26;14.55;;;6.05;;
73823;SDS011;62154;54.914;73.444;2022-09-12T15:39:04;17.30;;;6.38;;
73823;SDS011;62154;54.914;73.444;2022-09-12T15:41:32;20.80;;;7.13;;
73823;SDS011;62154;54.914;73.444;2022-09-12T15:44:05;18.83;;;7.18;;
73823;SDS011;62154;54.914;73.444;2022-09-12T15:46:38;29.55;;;9.45;;
73823;SDS011;62154;54.914;73.444;2022-09-12T15:49:06;51.88;;;26.05;;
73823;SDS011;62154;54.914;73.444;2022-09-12T15:51:33;36.30;;;15.98;;
73823;SDS011;62154;54.914;73.444;2022-09-12T15:54:00;24.50;;;12.45;;
73823;SDS011;62154;54.914;73.444;2022-09-12T15:56:29;35.45;;;15.02;;
73823;SDS011;62154;54.914;73.444;2022-09-12T15:58:56;31.52;;;12.80;;
73823;SDS011;62154;54.914;73.444;2022-09-12T16:01:24;34.00;;;6.78;;
73823;SDS011;62154;54.914;73.444;2022-09-12T16:03:52;22.55;;;6.22;;
73823;SDS011;62154;54.914;73.444;2022-09-12T16:06:19;25.70;;;8.18;;
73823;SDS011;62154;54.914;73.444;2022-09-12T16:08:47;25.48;;;8.05;;
73823;SDS011;62154;54.914;73.444;2022-09-12T16:11:26;34.78;;;12.50;;
73823;SDS011;62154;54.914;73.444;2022-09-12T16:13:54;32.65;;;10.73;;
73823;SDS011;62154;54.914;73.444;2022-09-12T16:16:22;125.55;;;55.40;;
73823;SDS011;62154;54.914;73.444;2022-09-12T16:18:49;43.00;;;14.02;;
73823;SDS011;62154;54.914;73.444;2022-09-12T16:21:16;32.45;;;12.93;;
73823;SDS011;62154;54.914;73.444;2022-09-12T16:23:46;32.42;;;11.32;;
73823;SDS011;62154;54.914;73.444;2022-09-12T16:26:14;18.85;;;7.82;;
73823;SDS011;62154;54.914;73.444;2022-09-12T16:28:57;30.80;;;7.32;;
73823;SDS011;62154;54.914;73.444;2022-09-12T16:31:25;27.50;;;6.57;;
73823;SDS011;62154;54.914;73.444;2022-09-12T16:33:54;18.63;;;6.35;;
73823;SDS011;62154;54.914;73.444;2022-09-12T16:36:21;19.33;;;6.72;;
73823;SDS011;62154;54.914;73.444;2022-09-12T16:38:53;18.60;;;6.45;;
73823;SDS011;62154;54.914;73.444;2022-09-12T16:41:27;40.63;;;12.50;;
73823;SDS011;62154;54.914;73.444;2022-09-12T16:43:54;38.00;;;12.10;;
73823;SDS011;62154;54.914;73.444;2022-09-12T16:46:23;27.27;;;7.43;;
73823;SDS011;62154;54.914;73.444;2022-09-12T16:48:56;22.63;;;6.13;;
73823;SDS011;62154;54.914;73.444;2022-09-12T16:51:32;29.25;;;9.45;;
73823;SDS011;62154;54.914;73.444;2022-09-12T16:54:16;31.95;;;11.25;;
73823;SDS011;62154;54.914;73.444;2022-09-12T16:56:43;31.63;;;17.00;;
73823;SDS011;62154;54.914;73.444;2022-09-12T16:59:11;30.88;;;9.35;;
73823;SDS011;62154;54.914;73.444;2022-09-12T17:01:41;25.10;;;10.10;;
73823;SDS011;62154;54.914;73.444;2022-09-12T17:04:10;20.60;;;9.48;;
73823;SDS011;62154;54.914;73.444;2022-09-12T17:06:37;32.15;;;14.25;;
73823;SDS011;62154;54.914;73.444;2022-09-12T17:09:05;23.92;;;10.93;;
73823;SDS011;62154;54.914;73.444;2022-09-12T17:11:34;25.70;;;9.88;;
73823;SDS011;62154;54.914;73.444;2022-09-12T17:14:05;19.63;;;8.52;;
73823;SDS011;62154;54.914;73.444;2022-09-12T17:16:37;25.33;;;9.80;;
73823;SDS011;62154;54.914;73.444;2022-09-12T17:19:06;17.42;;;7.60;;
73823;SDS011;62154;54.914;73.444;2022-09-12T17:21:39;20.70;;;7.63;;
73823;SDS011;62154;54.914;73.444;2022-09-12T17:24:07;15.93;;;7.65;;
73823;SDS011;62154;54.914;73.444;2022-09-12T17:26:34;22.80;;;7.57;;
73823;SDS011;62154;54.914;73.444;2022-09-12T17:29:07;17.75;;;5.93;;
73823;SDS011;62154;54.914;73.444;2022-09-12T17:31:36;37.75;;;22.38;;
73823;SDS011;62154;54.914;73.444;2022-09-12T17:34:03;74.78;;;52.33;;
73823;SDS011;62154;54.914;73.444;2022-09-12T17:36:41;56.47;;;38.03;;
73823;SDS011;62154;54.914;73.444;2022-09-12T17:39:11;26.13;;;13.02;;
73823;SDS011;62154;54.914;73.444;2022-09-12T17:41:39;24.70;;;9.13;;
73823;SDS011;62154;54.914;73.444;2022-09-12T17:44:08;14.60;;;5.53;;
73823;SDS011;62154;54.914;73.444;2022-09-12T17:46:38;13.25;;;5.30;;